INLO2: Newt Graham Lock And Dam (L&D 18)

Data processed at Sat Nov 17 2018 22:32


All information presented herein is the property of the government of the United States of America and may be revised or deleted at any time without prior notice.
Dissemination of this information without the expressed written consent of the Public Affairs Office, Tulsa District U.S. Army Corps of Engineers is strictly prohibited.
These data are gathered electronically and, as presented, have not undergone any form of quality control. These data are not guaranteed to be valid or correct.
Go to home page.
Go to station list.
Go to home page.

Upstream stations:

Downstream station:
Previous Day
Next Day
Current Day
    
SHEF ID:       INLO2     Newt Graham LD18
STATION TYPE:  NAVIGATION LOCK
Normal Pool:  Bottom =   532.00, Top =   532.50

               PRECIP ELEVATION   STORAGE   TW-ELEV LOCK-ELEV    INFLOW   RELEASE    GATE-1    GATE-2    GATE-3  AIR-TEMP  WIND-DIRWIND-SPEED REL-HUMID SOLAR-RAD   VOLTAGE  BAT-LOAD
                   in        ft     ac-ft        ft        ft       cfs       cfs        ft        ft        ft         F       deg       mph         %      W/m2      volt      volt
              Ccp-Rev   Ccp-Rev   Ccp-Rev   Ccp-Rev   Ccp-Rev  Regi-Rev  Regi-Rev   Ccp-Rev   Ccp-Rev   Ccp-Rev   Ccp-Rev   Ccp-Rev   Ccp-Rev   Ccp-Rev   Ccp-Rev   Ccp-Rev   Ccp-Rev
(US/Central)
11/17 00:00      0.00    532.39     24091    512.12      ----      2220      2145      ----      ----      ----     51.01    170.00      2.00     65.19      0.00     13.49     12.81
11/17 01:00      0.00    532.38     24075    512.11      ----      2145      2146      ----      ----      ----     50.52    171.30      2.10     65.07      0.00     13.49     12.81
11/17 02:00      0.00    532.40     24106    512.08      ----      2332      2145      ----      ----      ----     49.78    167.50      2.20     66.06      0.00     13.49     12.81
11/17 03:00      0.00    532.41     24121    512.07      ----      2295      2146      ----      ----      ----     48.54    158.10      1.70     69.27      0.00     13.49     12.81
11/17 04:00      0.00    532.44     24168    512.07      ----      2333      2147      ----      ----      ----     47.79    160.70      1.70     70.88      0.00     13.49     12.81
11/17 05:00      0.00    532.43     24152    512.07      ----      2184      2147      ----      ----      ----     47.35    164.30      3.30     69.34      0.00     13.49     12.81
11/17 06:00      0.00    532.43     24152    512.06      ----      2221      2147      ----      ----      ----     44.71    150.80      1.20     78.49      0.00     13.49     12.81
11/17 07:00      0.00    532.41     24121    512.17      ----      2110      2146      ----      ----      ----     45.99    175.00      2.50     70.87      0.00     13.49     12.81
11/17 08:00      0.00    532.43     24152    512.06      ----      2072      2146      ----      ----      ----     47.70    180.90      1.50     66.52     55.50     13.49     12.81
11/17 09:00      0.00    532.43     24152    512.03      ----      2184      2147      ----      ----      ----     51.39    164.70      3.20     59.46    212.70     13.49     12.81
11/17 10:00      0.00    532.41     24121    512.04      ----      2259      2146      ----      ----      ----     56.14    164.60      3.40     50.90    425.40     13.49     12.81
11/17 11:00      0.00    532.44     24168    512.09      ----      2259      2147      ----      ----      ----     59.41    186.70      4.30     44.39    445.40     13.49     12.81
11/17 12:00      0.00    532.44     24168    512.07      ----      2167      2147      ----      ----      ----     62.17    197.30      3.50     38.92    465.60     13.50     12.81
11/17 13:00      0.00    532.46     24198    512.12      ----      1812      2148      ----      ----      ----     64.09    182.30      3.40     35.48    501.00     13.49     12.81
11/17 14:00      0.00    532.49     24245    512.00      ----      2147      2149      ----      ----      ----     66.29    199.70      3.90     31.59    455.60     13.50     12.81
11/17 15:00      0.00    532.32     23983    512.06      ----      2110      2146      ----      ----      ----     67.12    187.00      3.30     29.55    259.20     13.50     12.81
11/17 16:00      0.00    532.44     24168    511.99      ----      1786      2144      ----      ----      ----     67.21    172.40      4.80     29.77    155.20     13.50     12.81
11/17 17:00      0.00    532.43     24152    512.00      ----      1449      2147      ----      ----      ----     65.35    153.00      4.50     32.92     36.40     13.50     12.81
11/17 18:00      0.00    532.46     24198    511.98      ----      1449      2148      ----      ----      ----     60.89    152.40      1.90     42.01      0.10     13.50     12.81
11/17 19:00      0.00    532.47     24214    511.96      -----107374176      ----      ----      ----      ----     55.38     10.40      2.40     52.37      0.00     13.50     12.81
11/17 20:00      0.00    532.50     24260    511.94      -----107374176      ----      ----      ----      ----     53.98    355.90      7.60     59.94      0.00     13.49     12.81
11/17 21:00      0.00    532.48     24229    511.92      -----107374176      ----      ----      ----      ----     48.06    351.00      7.90     71.32      0.00     13.49     12.81
11/17 22:00      ----      ----      ----      ----      -----107374176      ----      ----      ----      ----      ----      ----      ----      ----      ----      ----      ----
11/17 23:00      ----      ----      ----      ----      ----      ----      ----      ----      ----      ----      ----      ----      ----      ----      ----      ----      ----